Time;durP1;ratioP1;P1;durP2;ratioP2;P2;SDS_P1;SDS_P2;PMS_P1;PMS_P2;Temp;Humidity;BMP_temperature;BMP_pressure;BME280_temperature;BME280_humidity;BME280_pressure;Samples;Min_cycle;Max_cycle;Signal;HPM_P1;HPM_P2
2023/07/26 00:01:59;;;;;;;10.67;5.70;;;;;;;25.37;87.94;100078.31;5068619;28;20122;-59
2023/07/26 00:04:31;;;;;;;9.87;5.03;;;;;;;25.38;88.94;100080.00;5077583;28;20043;-59
2023/07/26 00:07:02;;;;;;;5.40;4.07;;;;;;;25.69;88.66;100088.22;5076301;28;21508;-58
2023/07/26 00:09:33;;;;;;;6.20;4.17;;;;;;;25.99;87.48;100078.66;5086376;28;20070;-57
2023/07/26 00:12:03;;;;;;;7.73;5.20;;;;;;;26.28;85.18;100078.00;5077051;28;20218;-59
2023/07/26 00:14:34;;;;;;;8.27;5.37;;;;;;;26.45;84.42;100064.03;5083952;28;20060;-59
2023/07/26 00:17:05;;;;;;;9.13;4.57;;;;;;;26.55;83.62;100067.63;5081567;28;20062;-59
2023/07/26 00:19:37;;;;;;;10.27;5.00;;;;;;;26.50;82.42;100059.13;5092908;28;20062;-60
2023/07/26 00:22:08;;;;;;;7.27;5.23;;;;;;;26.13;82.82;100022.09;5082878;28;20070;-59
2023/07/26 00:24:38;;;;;;;7.60;4.97;;;;;;;26.36;82.56;100054.09;5094670;28;20085;-60
2023/07/26 00:27:10;;;;;;;9.27;5.23;;;;;;;26.40;81.98;100015.34;5093773;28;20047;-59
2023/07/26 00:29:40;;;;;;;8.37;5.10;;;;;;;26.88;81.83;100054.94;5101591;28;20066;-58
2023/07/26 00:32:11;;;;;;;8.77;5.10;;;;;;;27.13;80.38;100066.19;5080798;28;20139;-59
2023/07/26 00:34:43;;;;;;;5.60;4.27;;;;;;;27.33;79.75;100043.81;5073391;28;20355;-59
2023/07/26 00:37:14;;;;;;;8.37;4.97;;;;;;;27.61;78.64;100052.91;5084029;28;20048;-59
2023/07/26 00:39:45;;;;;;;10.00;4.70;;;;;;;27.82;76.92;100049.28;5071873;28;20077;-59
2023/07/26 00:42:18;;;;;;;8.00;5.20;;;;;;;27.69;75.95;100054.91;5069392;28;20117;-60
2023/07/26 00:44:49;;;;;;;6.57;4.23;;;;;;;27.60;75.89;100066.47;5059868;28;20151;-57
2023/07/26 00:47:21;;;;;;;7.20;5.43;;;;;;;27.33;76.29;100059.91;5070814;28;20032;-58
2023/07/26 00:49:53;;;;;;;11.97;5.70;;;;;;;27.09;77.45;100053.06;5060475;28;20382;-59
2023/07/26 00:52:25;;;;;;;13.23;5.33;;;;;;;26.81;78.04;100032.34;5072417;28;20055;-61
2023/07/26 00:54:56;;;;;;;5.27;4.27;;;;;;;26.78;78.67;100065.63;5061235;28;20139;-61
2023/07/26 00:57:27;;;;;;;9.67;4.40;;;;;;;26.74;79.69;100064.22;5070248;28;20355;-60
2023/07/26 00:59:58;;;;;;;6.10;4.07;;;;;;;26.65;79.46;100052.44;5059431;28;20109;-58
2023/07/26 01:02:32;;;;;;;8.10;4.60;;;;;;;26.62;79.81;100055.41;5070683;28;20048;-59
2023/07/26 01:05:07;;;;;;;7.00;4.93;;;;;;;26.55;80.63;100054.25;5061884;28;20054;-59
2023/07/26 01:07:46;;;;;;;8.50;5.50;;;;;;;26.56;80.74;100050.59;5072121;28;20184;-58
2023/07/26 01:10:23;;;;;;;10.27;5.47;;;;;;;26.67;80.88;100041.63;5059929;28;20036;-58
2023/07/26 01:12:57;;;;;;;8.80;6.13;;;;;;;26.84;80.60;100048.19;5060127;28;20078;-60
2023/07/26 01:15:32;;;;;;;7.87;5.80;;;;;;;27.07;80.30;100044.28;5071874;28;20048;-60
2023/07/26 01:18:10;;;;;;;13.00;5.90;;;;;;;27.02;79.82;100041.19;5060094;28;20120;-60
2023/07/26 01:20:42;;;;;;;;;;;;;;;26.99;79.58;100046.81;5071911;28;20608;-58
2023/07/26 01:23:15;;;;;;;6.07;4.80;;;;;;;26.86;79.61;100043.53;5060030;28;19959;-59
2023/07/26 01:25:45;;;;;;;7.13;4.60;;;;;;;26.74;79.93;100041.94;5061558;28;20156;-59
2023/07/26 01:28:16;;;;;;;7.17;4.90;;;;;;;26.71;80.21;100052.91;5069883;28;20142;-57
2023/07/26 01:30:48;;;;;;;6.53;4.63;;;;;;;26.89;80.84;100043.25;5059940;28;20414;-60
2023/07/26 01:33:21;;;;;;;8.47;4.53;;;;;;;27.08;80.77;100040.66;5070617;28;20112;-58
2023/07/26 01:35:53;;;;;;;7.87;4.53;;;;;;;27.26;79.50;100026.63;5058767;28;20115;-59
2023/07/26 01:38:26;;;;;;;10.50;4.27;;;;;;;27.43;77.80;100025.06;5069735;28;20047;-59
2023/07/26 01:40:57;;;;;;;6.50;4.87;;;;;;;27.58;78.63;100037.06;5060712;28;20071;-60
2023/07/26 01:43:28;;;;;;;8.27;5.07;;;;;;;27.83;78.42;100016.94;5070753;28;20052;-59
2023/07/26 01:46:00;;;;;;;5.43;4.33;;;;;;;28.06;78.18;100019.31;5059591;28;20431;-59
2023/07/26 01:48:31;;;;;;;7.17;5.00;;;;;;;28.11;77.05;100011.66;5070974;28;20055;-60
2023/07/26 01:51:01;;;;;;;7.43;4.93;;;;;;;27.91;75.80;100017.06;5058627;28;20044;-59
2023/07/26 01:53:34;;;;;;;8.60;4.53;;;;;;;27.87;76.54;100007.59;5068827;28;20051;-59
2023/07/26 01:56:04;;;;;;;6.77;4.33;;;;;;;28.33;77.38;100000.59;5059255;28;20150;-60
2023/07/26 01:58:35;;;;;;;9.90;4.60;;;;;;;28.82;76.47;100001.25;5071629;28;20052;-58
2023/07/26 02:01:08;;;;;;;6.70;4.23;;;;;;;29.14;72.48;99994.59;5060054;28;20389;-59
2023/07/26 02:03:38;;;;;;;5.80;4.50;;;;;;;29.09;71.72;99996.91;5070549;28;20132;-61
2023/07/26 02:06:09;;;;;;;7.47;4.60;;;;;;;29.18;72.25;99996.00;5059139;28;20048;-59
2023/07/26 02:08:41;;;;;;;7.50;4.23;;;;;;;29.32;72.18;100001.84;5069774;28;20048;-60
2023/07/26 02:11:12;;;;;;;5.07;4.10;;;;;;;29.43;71.87;100001.59;5067285;28;20052;-62
2023/07/26 02:13:43;;;;;;;8.53;4.23;;;;;;;29.71;71.01;99996.19;5072459;28;20047;-60
2023/07/26 02:16:13;;;;;;;8.67;4.27;;;;;;;29.72;69.13;99987.09;5077722;28;20109;-59
2023/07/26 02:18:46;;;;;;;8.80;4.43;;;;;;;29.70;71.05;99991.81;5067091;28;20043;-60
2023/07/26 02:21:17;;;;;;;5.60;3.80;;;;;;;29.56;70.87;99995.88;5076544;28;20052;-58
2023/07/26 02:23:49;;;;;;;10.70;4.00;;;;;;;29.25;71.26;99985.44;5065578;28;20049;-59
2023/07/26 02:26:20;;;;;;;7.73;4.20;;;;;;;28.89;71.50;99984.53;5076334;28;20051;-59
2023/07/26 02:28:50;;;;;;;7.70;4.97;;;;;;;28.84;72.85;99984.13;5066929;28;20063;-61
2023/07/26 02:31:21;;;;;;;9.57;4.43;;;;;;;28.87;72.40;99975.75;5076750;28;20047;-59
2023/07/26 02:33:51;;;;;;;7.93;4.40;;;;;;;29.12;73.38;99964.31;5065802;28;20055;-59
2023/07/26 02:36:22;;;;;;;6.50;4.00;;;;;;;29.46;72.31;99969.03;5060118;28;20062;-61
2023/07/26 02:38:55;;;;;;;8.13;5.27;;;;;;;29.87;72.33;99966.69;5064403;28;20084;-58
2023/07/26 02:41:26;;;;;;;8.97;5.27;;;;;;;30.06;70.37;99973.75;5076966;28;20052;-58
2023/07/26 02:43:56;;;;;;;11.20;4.93;;;;;;;30.22;69.54;99964.91;5065780;28;20044;-60
2023/07/26 02:46:36;;;;;;;9.67;4.77;;;;;;;30.33;68.73;99970.06;5076533;28;20059;-56
2023/07/26 02:49:06;;;;;;;7.20;4.33;;;;;;;30.18;68.35;99971.59;5080339;27;20084;-60
2023/07/26 02:51:37;;;;;;;8.33;4.10;;;;;;;29.99;68.27;99960.03;5088333;28;20110;-57
2023/07/26 02:54:10;;;;;;;10.67;4.60;;;;;;;30.24;69.97;99960.19;5073762;28;20044;-57
2023/07/26 02:56:40;;;;;;;7.23;4.20;;;;;;;30.51;69.43;99964.59;5080982;28;20048;-57
2023/07/26 02:59:10;;;;;;;10.30;4.57;;;;;;;30.70;68.25;99966.19;5076835;28;20044;-59
2023/07/26 03:01:41;;;;;;;8.13;4.83;;;;;;;30.70;66.90;99960.78;5098963;28;20044;-58
2023/07/26 03:04:12;;;;;;;10.50;4.57;;;;;;;30.42;67.72;99944.81;5088598;28;20480;-58
2023/07/26 03:06:42;;;;;;;10.40;4.37;;;;;;;30.32;68.49;99946.81;5096010;28;20165;-58
2023/07/26 03:09:15;;;;;;;10.13;4.77;;;;;;;30.44;68.46;99950.91;5120054;28;20111;-60
2023/07/26 03:11:45;;;;;;;6.17;4.60;;;;;;;30.38;66.73;99940.78;5108717;28;20054;-64
2023/07/26 03:14:16;;;;;;;7.93;4.77;;;;;;;30.35;68.24;99946.47;5079855;28;20050;-58
2023/07/26 03:16:46;;;;;;;10.03;4.60;;;;;;;30.55;66.89;99946.22;5059704;28;20601;-58
2023/07/26 03:19:17;;;;;;;10.93;4.90;;;;;;;30.57;68.04;99957.69;5070026;28;20044;-57
2023/07/26 03:21:47;;;;;;;8.17;4.43;;;;;;;30.52;67.49;99950.94;5056664;28;20044;-60
2023/07/26 03:24:20;;;;;;;10.40;4.93;;;;;;;30.35;66.53;99935.69;5066943;28;20072;-56
2023/07/26 03:26:50;;;;;;;9.83;4.73;;;;;;;30.26;67.63;99942.91;5057245;28;20127;-59
2023/07/26 03:29:21;;;;;;;8.60;4.40;;;;;;;30.51;67.32;99935.78;5086925;28;20039;-57
2023/07/26 03:31:51;;;;;;;9.73;4.60;;;;;;;30.70;67.39;99928.41;5077136;28;20074;-58
2023/07/26 03:34:22;;;;;;;6.37;4.30;;;;;;;30.83;66.80;99912.66;5086865;28;20059;-60
2023/07/26 03:36:52;;;;;;;8.20;4.27;;;;;;;30.82;66.60;99912.78;5076106;28;20051;-59
2023/07/26 03:39:25;;;;;;;8.97;4.83;;;;;;;30.38;66.34;99907.56;5086394;28;20055;-58
2023/07/26 03:41:55;;;;;;;11.07;4.17;;;;;;;30.34;67.01;99912.44;5076102;28;20043;-60
2023/07/26 03:44:26;;;;;;;10.60;4.97;;;;;;;30.30;67.34;99905.69;5086632;28;20782;-59
2023/07/26 03:46:56;;;;;;;10.63;5.67;;;;;;;30.08;67.03;99907.91;5077067;28;20050;-61
2023/07/26 03:49:27;;;;;;;12.10;4.80;;;;;;;29.99;68.46;99908.88;5086330;28;20043;-58
2023/07/26 03:51:58;;;;;;;7.47;4.90;;;;;;;30.13;68.78;99909.25;5076217;28;20047;-58
2023/07/26 03:54:30;;;;;;;8.87;5.53;;;;;;;30.07;68.84;99916.16;5086899;28;20562;-59
2023/07/26 03:57:00;;;;;;;8.17;4.67;;;;;;;30.16;68.83;99917.06;5075904;28;20040;-57
2023/07/26 03:59:31;;;;;;;11.90;5.17;;;;;;;30.38;68.03;99919.22;5086260;28;20074;-58
2023/07/26 04:02:01;;;;;;;8.13;5.03;;;;;;;30.28;67.38;99918.50;5076021;28;20446;-60
2023/07/26 04:04:32;;;;;;;12.73;5.80;;;;;;;30.21;68.22;99914.72;5086805;28;20039;-58
2023/07/26 04:07:03;;;;;;;8.70;5.13;;;;;;;30.35;67.79;99914.13;5075535;28;20065;-60
2023/07/26 04:09:36;;;;;;;10.83;5.33;;;;;;;30.40;68.70;99909.09;5086047;28;20041;-58
2023/07/26 04:12:07;;;;;;;11.60;4.80;;;;;;;30.39;67.96;99910.13;5075361;28;20134;-57
2023/07/26 04:14:39;;;;;;;8.00;4.93;;;;;;;30.38;69.06;99903.03;5084500;28;20155;-59
2023/07/26 04:17:10;;;;;;;8.40;5.07;;;;;;;30.44;68.43;99910.47;5075082;28;20067;-57
2023/07/26 04:19:40;;;;;;;8.73;5.70;;;;;;;30.31;68.16;99908.22;5086294;28;20056;-60
2023/07/26 04:22:13;;;;;;;8.30;5.13;;;;;;;30.14;68.30;99911.81;5075515;28;20130;-57
2023/07/26 04:24:45;;;;;;;10.17;5.10;;;;;;;30.37;69.14;99904.03;5077769;28;20051;-57
2023/07/26 04:27:17;;;;;;;7.33;5.53;;;;;;;30.49;68.97;99910.81;5085874;28;20135;-58
2023/07/26 04:29:47;;;;;;;12.10;5.40;;;;;;;30.70;68.71;99901.44;5075621;28;20127;-58
2023/07/26 04:32:18;;;;;;;8.83;5.20;;;;;;;30.70;67.29;99906.84;5085742;28;20040;-56
2023/07/26 04:34:49;;;;;;;8.77;5.23;;;;;;;30.52;67.18;99899.72;5075165;28;20051;-58
2023/07/26 04:37:19;;;;;;;9.80;5.40;;;;;;;30.43;68.31;99884.53;5085743;28;20035;-58
2023/07/26 04:39:51;;;;;;;7.57;4.80;;;;;;;30.57;68.43;99907.31;5075095;28;20420;-59
2023/07/26 04:42:22;;;;;;;9.70;5.43;;;;;;;30.55;68.79;99897.69;5085582;28;20043;-56
2023/07/26 04:44:52;;;;;;;8.00;5.20;;;;;;;30.68;68.78;99887.31;5074984;28;20109;-57
2023/07/26 04:47:24;;;;;;;10.40;5.53;;;;;;;30.70;67.84;99886.13;5085768;28;20039;-59
2023/07/26 04:49:55;;;;;;;8.10;4.90;;;;;;;30.69;68.55;99883.59;5075791;28;20424;-60
2023/07/26 04:52:25;;;;;;;9.43;4.87;;;;;;;30.77;68.09;99880.91;5085402;28;20116;-56
2023/07/26 04:54:59;;;;;;;6.37;4.63;;;;;;;30.68;67.55;99871.97;5074566;28;20147;-56
2023/07/26 04:57:29;;;;;;;8.20;4.70;;;;;;;30.61;68.07;99862.00;5085110;28;20130;-57
2023/07/26 05:00:00;;;;;;;7.70;4.73;;;;;;;30.58;68.49;99859.63;5074505;28;20047;-56
2023/07/26 05:02:31;;;;;;;6.73;4.93;;;;;;;30.48;68.57;99855.22;5079590;28;20035;-57
2023/07/26 05:05:01;;;;;;;9.77;4.77;;;;;;;30.57;68.63;99861.47;5058609;28;20052;-58
2023/07/26 05:07:32;;;;;;;7.67;5.27;;;;;;;30.45;67.37;99860.97;5071258;28;20051;-58
2023/07/26 05:10:04;;;;;;;12.33;4.90;;;;;;;30.37;68.36;99854.69;5060449;28;20057;-58
2023/07/26 05:12:37;;;;;;;11.80;5.40;;;;;;;30.41;68.48;99853.34;5070938;28;20073;-59
2023/07/26 05:15:08;;;;;;;13.27;4.73;;;;;;;30.45;69.85;99850.19;5059331;28;20043;-59
2023/07/26 05:17:38;;;;;;;7.77;4.47;;;;;;;30.50;68.39;99847.84;5070529;28;20048;-61
2023/07/26 05:20:12;;;;;;;9.53;5.20;;;;;;;30.42;67.99;99847.78;5060808;28;20075;-59
2023/07/26 05:22:43;;;;;;;7.60;4.57;;;;;;;30.38;68.63;99843.75;5064542;28;20039;-58
2023/07/26 05:25:15;;;;;;;7.40;4.30;;;;;;;30.38;68.51;99849.13;5071044;28;20123;-59
2023/07/26 05:27:45;;;;;;;10.57;4.20;;;;;;;30.35;68.45;99846.75;5060845;28;20043;-56
2023/07/26 05:30:17;;;;;;;8.23;4.30;;;;;;;30.36;69.22;99820.66;5071482;28;20093;-59
2023/07/26 05:32:48;;;;;;;10.47;4.33;;;;;;;30.49;68.12;99835.34;5059580;28;20060;-57
2023/07/26 05:35:19;;;;;;;11.90;4.37;;;;;;;30.50;67.34;99847.84;5069926;28;20052;-60
2023/07/26 05:37:50;;;;;;;11.67;3.90;;;;;;;30.51;67.42;99838.72;5059856;28;20059;-59
2023/07/26 05:40:22;;;;;;;9.20;3.97;;;;;;;30.51;67.90;99844.13;5071434;28;20142;-57
2023/07/26 05:42:55;;;;;;;10.90;4.60;;;;;;;30.41;67.97;99846.09;5059356;28;20059;-59
2023/07/26 05:45:28;;;;;;;13.97;4.07;;;;;;;30.30;68.21;99832.91;5069009;28;20052;-59
2023/07/26 05:47:59;;;;;;;8.50;3.90;;;;;;;30.48;69.75;99849.84;5058373;28;20046;-59
2023/07/26 05:50:29;;;;;;;12.50;3.77;;;;;;;30.52;68.65;99840.41;5070805;28;20052;-61
2023/07/26 05:53:00;;;;;;;6.40;3.70;;;;;;;30.59;68.32;99845.97;5060980;28;20075;-61
2023/07/26 05:55:32;;;;;;;6.13;3.60;;;;;;;30.53;67.31;99842.09;5070076;28;20130;-61
2023/07/26 05:58:03;;;;;;;6.10;3.47;;;;;;;30.44;67.47;99837.69;5060157;28;20508;-60
2023/07/26 06:00:33;;;;;;;9.17;3.80;;;;;;;30.49;68.46;99840.72;5070509;28;20382;-57
2023/07/26 06:03:04;;;;;;;5.30;3.50;;;;;;;30.48;67.17;99836.38;5059723;28;20525;-57
2023/07/26 06:05:35;;;;;;;9.77;3.27;;;;;;;30.42;68.12;99834.31;5070660;28;20758;-59
2023/07/26 06:08:06;;;;;;;6.90;3.13;;;;;;;30.44;68.75;99821.50;5059960;28;20055;-57
2023/07/26 06:10:38;;;;;;;7.37;3.50;;;;;;;30.43;67.88;99835.13;5071189;28;20724;-60
2023/07/26 06:13:12;;;;;;;10.53;3.67;;;;;;;30.34;68.69;99831.59;5059530;28;20069;-59
2023/07/26 06:15:43;;;;;;;9.87;3.80;;;;;;;30.31;68.99;99821.16;5062961;28;20048;-60
2023/07/26 06:18:13;;;;;;;13.37;4.80;;;;;;;30.32;68.86;99817.44;5070154;28;20079;-61
2023/07/26 06:20:44;;;;;;;7.90;3.60;;;;;;;30.28;68.86;99826.88;5059782;28;20048;-60
2023/07/26 06:23:14;;;;;;;6.20;3.60;;;;;;;30.27;68.02;99826.00;5082071;28;20135;-62
2023/07/26 06:25:46;;;;;;;7.33;3.47;;;;;;;30.36;69.27;99818.81;5071627;28;20424;-61
2023/07/26 06:28:17;;;;;;;5.73;3.60;;;;;;;30.41;68.49;99827.25;5074683;28;20085;-62
2023/07/26 06:30:47;;;;;;;8.10;3.70;;;;;;;30.48;68.59;99828.28;5062668;28;20143;-61
2023/07/26 06:33:18;;;;;;;15.40;4.20;;;;;;;30.49;68.37;99824.56;5108262;28;20096;-62
2023/07/26 06:35:49;;;;;;;10.17;4.30;;;;;;;30.44;67.74;99816.13;5058089;28;20418;-61
2023/07/26 06:38:22;;;;;;;10.03;3.63;;;;;;;30.40;68.00;99814.75;5069390;28;20481;-61
2023/07/26 06:40:55;;;;;;;7.47;3.57;;;;;;;30.28;67.23;99806.16;5057844;28;20521;-62
2023/07/26 06:43:25;;;;;;;10.60;3.70;;;;;;;30.19;68.55;99806.25;5069506;28;20113;-60
2023/07/26 06:45:56;;;;;;;7.23;3.30;;;;;;;30.21;69.13;99815.03;5057627;28;20044;-60
2023/07/26 06:48:26;;;;;;;7.53;3.60;;;;;;;30.27;69.06;99809.84;5069192;28;20051;-61
2023/07/26 06:50:57;;;;;;;8.70;3.90;;;;;;;30.32;68.50;99812.03;5059276;28;20421;-59
2023/07/26 06:53:27;;;;;;;5.63;3.53;;;;;;;30.28;68.15;99816.94;5068245;28;20099;-62
2023/07/26 06:56:01;;;;;;;7.97;3.80;;;;;;;30.17;67.94;99813.66;5059988;28;20108;-62
2023/07/26 06:58:31;;;;;;;7.23;3.70;;;;;;;30.06;68.80;99822.88;5072463;28;20077;-61
2023/07/26 07:01:02;;;;;;;5.40;3.40;;;;;;;30.00;68.84;99800.09;5063971;28;20082;-62
2023/07/26 07:03:32;;;;;;;11.27;4.17;;;;;;;30.08;69.05;99807.41;5073032;28;20410;-58
2023/07/26 07:06:03;;;;;;;5.90;3.37;;;;;;;30.19;69.44;99811.63;5062708;28;20115;-61
2023/07/26 07:08:33;;;;;;;11.53;3.90;;;;;;;30.23;67.82;99812.97;5072438;28;20035;-61
2023/07/26 07:11:06;;;;;;;8.70;3.93;;;;;;;30.30;68.06;99808.66;5063102;28;20146;-58
2023/07/26 07:13:37;;;;;;;8.67;4.00;;;;;;;30.28;66.85;99805.31;5074260;28;20048;-60
2023/07/26 07:16:07;;;;;;;9.83;4.80;;;;;;;30.30;66.95;99808.66;5062763;28;20051;-62
2023/07/26 07:18:38;;;;;;;6.37;4.10;;;;;;;30.32;67.14;99812.03;5073471;28;20439;-62
2023/07/26 07:21:08;;;;;;;9.00;4.57;;;;;;;30.39;67.42;99813.06;5062238;28;20138;-62
2023/07/26 07:23:39;;;;;;;12.50;8.57;;;;;;;30.44;67.29;99813.44;5074292;28;20525;-60
2023/07/26 07:26:11;;;;;;;10.87;6.10;;;;;;;30.37;66.58;99808.84;5061014;28;20494;-61
2023/07/26 07:28:42;;;;;;;8.00;4.50;;;;;;;30.02;67.26;99781.94;5072844;28;20490;-58
2023/07/26 07:31:12;;;;;;;7.63;4.40;;;;;;;30.12;67.76;99807.91;5062911;28;20059;-61
2023/07/26 07:33:43;;;;;;;9.30;3.83;;;;;;;30.12;67.94;99807.91;5069134;28;20055;-60
2023/07/26 07:36:17;;;;;;;7.87;4.27;;;;;;;29.93;67.66;99812.53;5072521;28;20105;-60
2023/07/26 07:38:48;;;;;;;10.17;7.27;;;;;;;29.71;68.18;99775.41;5062374;28;20055;-61
2023/07/26 07:41:21;;;;;;;33.27;26.10;;;;;;;29.78;68.76;99808.75;5072986;28;20060;-61
2023/07/26 07:43:51;;;;;;;27.97;16.70;;;;;;;29.60;69.08;99801.53;5062406;28;20390;-60
2023/07/26 07:46:22;;;;;;;18.73;9.30;;;;;;;29.25;69.59;99797.09;5072957;28;20479;-61
2023/07/26 07:48:52;;;;;;;29.30;17.93;;;;;;;29.54;70.30;99807.56;5061852;28;20132;-60
2023/07/26 07:51:23;;;;;;;16.97;12.00;;;;;;;29.47;69.70;99806.50;5073403;28;20048;-62
2023/07/26 07:53:53;;;;;;;12.07;6.53;;;;;;;29.22;70.77;99809.03;5061889;28;20422;-65
2023/07/26 07:56:25;;;;;;;13.77;5.60;;;;;;;29.11;71.43;99811.97;5073683;28;20170;-57
2023/07/26 07:58:56;;;;;;;49.97;33.50;;;;;;;29.17;71.45;99811.34;5062560;28;20047;-61
2023/07/26 08:01:26;;;;;;;30.10;21.00;;;;;;;29.24;71.39;99816.94;5072739;28;20134;-58
2023/07/26 08:03:58;;;;;;;11.50;5.80;;;;;;;29.26;71.49;99824.88;5062438;28;20144;-61
2023/07/26 08:06:29;;;;;;;10.40;5.60;;;;;;;29.02;70.76;99829.00;5070234;28;20137;-60
2023/07/26 08:08:59;;;;;;;10.33;4.53;;;;;;;28.82;71.45;99818.41;5066560;28;20050;-61
2023/07/26 08:11:31;;;;;;;8.37;5.40;;;;;;;28.65;72.67;99827.31;5070402;28;20040;-61
2023/07/26 08:14:03;;;;;;;8.17;4.53;;;;;;;28.43;73.31;99827.69;5062249;28;20057;-61
2023/07/26 08:16:33;;;;;;;9.80;5.00;;;;;;;28.25;73.79;99820.44;5071174;28;20147;-66
2023/07/26 08:19:04;;;;;;;9.97;4.43;;;;;;;28.13;75.29;99810.91;5061079;28;20069;-62
2023/07/26 08:21:35;;;;;;;14.00;4.40;;;;;;;28.24;75.18;99824.16;5072004;28;20079;-59
2023/07/26 08:24:06;;;;;;;7.90;4.37;;;;;;;28.39;73.82;99821.78;5062192;28;20044;-60
2023/07/26 08:26:38;;;;;;;16.77;5.40;;;;;;;28.44;73.96;99819.50;5072198;28;20055;-60
2023/07/26 08:29:10;;;;;;;16.37;6.83;;;;;;;28.51;73.65;99819.78;5060035;28;20148;-61
2023/07/26 08:31:41;;;;;;;17.93;9.10;;;;;;;28.56;72.89;99822.88;5071371;28;20048;-60
2023/07/26 08:34:12;;;;;;;22.53;9.57;;;;;;;28.61;73.33;99828.63;5061708;28;20082;-62
2023/07/26 08:36:42;;;;;;;11.27;6.40;;;;;;;28.65;73.68;99827.31;5068041;28;20036;-59
2023/07/26 08:39:13;;;;;;;11.00;4.50;;;;;;;28.57;73.25;99824.53;5070243;28;20432;-60
2023/07/26 08:42:05;;;;;;;11.17;5.50;;;;;;;28.46;73.31;99822.91;5060192;28;20152;-59
2023/07/26 08:44:37;;;;;;;9.47;4.40;;;;;;;28.39;73.79;99824.47;5086448;28;20546;-65
2023/07/26 08:47:09;;;;;;;10.07;4.40;;;;;;;28.44;73.89;99824.03;5061379;28;20040;-59
2023/07/26 08:49:40;;;;;;;6.57;4.70;;;;;;;28.37;74.06;99824.63;5070657;28;20046;-63
2023/07/26 08:52:11;;;;;;;6.23;4.30;;;;;;;28.34;73.55;99826.78;5061273;28;20055;-63
2023/07/26 08:54:42;;;;;;;8.43;4.70;;;;;;;28.16;73.99;99813.31;5070456;28;20051;-60
2023/07/26 08:57:16;;;;;;;7.67;4.03;;;;;;;27.65;73.92;99742.97;5059555;28;20048;-62
2023/07/26 08:59:46;;;;;;;9.17;4.73;;;;;;;28.05;73.99;99834.97;5060500;28;20048;-60
2023/07/26 09:02:21;;;;;;;8.17;4.40;;;;;;;27.45;74.70;99752.09;5071037;28;20044;-57
2023/07/26 09:04:52;;;;;;;7.43;4.33;;;;;;;27.68;75.50;99811.63;5059872;28;20051;-61
2023/07/26 09:07:23;;;;;;;10.80;4.50;;;;;;;27.67;75.65;99831.41;5070665;28;20341;-61
2023/07/26 09:09:54;;;;;;;15.20;6.17;;;;;;;27.61;75.84;99831.97;5060322;28;20048;-62
2023/07/26 09:12:29;;;;;;;15.43;6.13;;;;;;;27.45;76.59;99827.22;5070996;28;20048;-61
2023/07/26 09:15:04;;;;;;;16.43;6.07;;;;;;;27.49;76.50;99850.94;5061139;28;20540;-61
2023/07/26 09:17:40;;;;;;;8.97;5.50;;;;;;;27.41;76.33;99842.78;5069495;28;20517;-61
2023/07/26 09:20:22;;;;;;;11.70;5.77;;;;;;;27.35;77.09;99843.31;5059708;28;20197;-60
2023/07/26 09:23:01;;;;;;;10.73;5.50;;;;;;;27.18;77.61;99823.44;5060853;28;20055;-59
2023/07/26 09:25:34;;;;;;;17.30;5.53;;;;;;;27.14;78.15;99839.94;5070582;28;20047;-60
2023/07/26 09:28:09;;;;;;;11.33;5.67;;;;;;;27.07;78.18;99829.78;5060267;28;20433;-60
2023/07/26 09:30:45;;;;;;;26.03;13.17;;;;;;;26.83;78.86;99815.94;5072274;28;20051;-62
2023/07/26 09:33:17;;;;;;;22.93;15.03;;;;;;;26.82;79.69;99830.34;5060223;28;20189;-62
2023/07/26 09:35:49;;;;;;;20.70;15.00;;;;;;;26.68;80.14;99827.09;5061048;28;20096;-60
2023/07/26 09:38:26;;;;;;;15.00;10.43;;;;;;;26.32;80.75;99790.19;5069238;28;20340;-60
2023/07/26 09:40:58;;;;;;;11.00;6.20;;;;;;;26.49;80.93;99824.34;5059876;28;20386;-61
2023/07/26 09:43:35;;;;;;;14.37;5.10;;;;;;;26.33;81.37;99824.00;5070918;28;20461;-61
2023/07/26 09:46:12;;;;;;;14.37;5.20;;;;;;;26.25;81.91;99833.56;5060544;28;20078;-62
2023/07/26 09:49:00;;;;;;;11.60;5.30;;;;;;;26.11;82.53;99831.28;5060179;28;20469;-62
2023/07/26 09:51:33;;;;;;;12.70;5.50;;;;;;;25.91;83.25;99834.84;5070045;28;20044;-58
2023/07/26 09:54:04;;;;;;;12.60;5.30;;;;;;;25.78;83.78;99841.22;5058689;28;20046;-64
2023/07/26 09:56:40;;;;;;;11.50;4.73;;;;;;;25.64;84.64;99846.94;5070341;28;20377;-63
2023/07/26 09:59:13;;;;;;;7.90;4.90;;;;;;;25.51;85.13;99855.19;5059922;28;20527;-63
2023/07/26 10:01:46;;;;;;;11.60;5.53;;;;;;;25.38;85.89;99850.00;5060229;28;20047;-65
2023/07/26 10:04:21;;;;;;;11.93;5.40;;;;;;;25.22;86.78;99849.63;5070120;28;20035;-62
2023/07/26 10:06:56;;;;;;;10.87;6.17;;;;;;;25.06;87.70;99854.50;5059667;28;20143;-60
2023/07/26 10:09:32;;;;;;;12.30;6.10;;;;;;;24.95;88.14;99850.06;5069656;28;20493;-61
2023/07/26 10:12:04;;;;;;;13.47;5.50;;;;;;;24.86;88.81;99859.72;5059395;28;20170;-63
2023/07/26 10:14:38;;;;;;;11.03;5.60;;;;;;;24.77;89.31;99864.97;5069296;28;20538;-62
2023/07/26 10:17:14;;;;;;;17.80;5.40;;;;;;;24.66;89.96;99874.69;5059563;28;20040;-61
2023/07/26 10:19:47;;;;;;;10.47;5.60;;;;;;;24.60;90.43;99872.50;5059545;28;20108;-62
2023/07/26 10:22:20;;;;;;;13.07;6.10;;;;;;;24.53;90.66;99874.81;5069845;28;20055;-63
2023/07/26 10:24:51;;;;;;;10.40;6.00;;;;;;;24.45;90.80;99882.63;5058479;28;20539;-62
2023/07/26 10:27:23;;;;;;;10.23;6.10;;;;;;;24.40;90.58;99868.75;5070009;28;20040;-62
2023/07/26 10:29:58;;;;;;;8.40;5.40;;;;;;;24.33;90.80;99879.06;5059650;27;20513;-62
2023/07/26 10:32:30;;;;;;;16.30;7.47;;;;;;;24.27;91.05;99878.72;5072627;28;20048;-64
2023/07/26 10:35:04;;;;;;;11.20;5.83;;;;;;;24.18;91.40;99885.63;5064100;28;20063;-63
2023/07/26 10:37:36;;;;;;;11.17;5.80;;;;;;;24.02;91.89;99869.16;5075169;28;20040;-60
2023/07/26 10:40:38;;;;;;;11.53;6.03;;;;;;;24.05;92.07;99880.41;5065201;28;20044;-61
2023/07/26 10:43:42;;;;;;;11.63;5.90;;;;;;;23.97;92.39;99882.84;5062449;28;20063;-62
2023/07/26 10:46:18;;;;;;;8.73;6.30;;;;;;;23.93;92.53;99891.19;5063417;28;20414;-60
2023/07/26 10:48:50;;;;;;;10.13;5.87;;;;;;;23.88;92.48;99888.88;5063675;28;20036;-61
2023/07/26 10:51:26;;;;;;;13.93;7.73;;;;;;;23.33;92.58;99807.78;5073057;28;20052;-61
2023/07/26 10:53:58;;;;;;;13.43;7.63;;;;;;;23.56;92.74;99857.50;5062530;28;20052;-60
2023/07/26 10:56:36;;;;;;;12.20;6.27;;;;;;;23.76;92.88;99900.50;5071975;28;20142;-59
2023/07/26 10:59:28;;;;;;;13.40;6.80;;;;;;;23.73;93.05;99908.75;5063429;28;20055;-60
2023/07/26 11:02:09;;;;;;;10.33;6.60;;;;;;;23.62;92.89;99902.41;5063287;28;20059;-61
2023/07/26 11:04:45;;;;;;;10.50;6.10;;;;;;;23.69;93.10;99916.97;5073895;28;20151;-60
2023/07/26 11:07:19;;;;;;;11.93;6.93;;;;;;;23.66;93.01;99914.53;5063691;28;20702;-61
2023/07/26 11:09:51;;;;;;;15.13;6.70;;;;;;;23.60;93.06;99923.00;5062513;28;20047;-61
2023/07/26 11:12:26;;;;;;;10.90;6.43;;;;;;;23.57;93.06;99923.22;5072931;28;20040;-62
2023/07/26 11:14:58;;;;;;;10.77;6.73;;;;;;;23.53;93.26;99927.09;5062297;28;20115;-62
2023/07/26 11:17:51;;;;;;;15.50;7.27;;;;;;;23.51;93.76;99923.69;5061747;28;20481;-62
2023/07/26 11:20:26;;;;;;;11.53;6.73;;;;;;;23.47;93.73;99930.22;5073476;28;20136;-62
2023/07/26 11:22:58;;;;;;;11.43;6.57;;;;;;;23.41;94.21;99936.00;5063938;28;20083;-62
2023/07/26 11:25:30;;;;;;;12.57;6.97;;;;;;;23.36;94.45;99935.50;5073442;28;20048;-60
2023/07/26 11:28:03;;;;;;;14.47;7.33;;;;;;;23.30;94.89;99935.97;5061752;28;20063;-61
2023/07/26 11:30:36;;;;;;;15.87;7.37;;;;;;;23.19;95.39;99929.63;5071499;28;20063;-62
2023/07/26 11:33:10;;;;;;;11.87;6.97;;;;;;;23.19;95.60;99934.97;5063001;28;20054;-62
2023/07/26 11:35:43;;;;;;;12.17;7.10;;;;;;;23.06;95.99;99923.50;5072932;28;20512;-62
2023/07/26 11:38:17;;;;;;;16.07;7.30;;;;;;;22.83;96.25;99902.03;5063169;28;20502;-62
2023/07/26 11:40:50;;;;;;;12.97;7.30;;;;;;;23.00;96.92;99934.63;5062468;28;20080;-61
2023/07/26 11:43:22;;;;;;;16.07;7.20;;;;;;;22.98;97.22;99941.88;5069648;28;20105;-60
2023/07/26 11:45:54;;;;;;;10.07;7.30;;;;;;;22.98;97.25;99941.88;5061782;28;20055;-61
2023/07/26 11:48:30;;;;;;;10.47;6.37;;;;;;;22.92;97.44;99937.81;5072179;28;20555;-61
2023/07/26 11:51:05;;;;;;;13.43;7.18;;;;;;;22.47;97.46;99878.09;5061885;28;20053;-61
2023/07/26 11:53:41;;;;;;;10.93;8.17;;;;;;;22.77;98.12;99945.09;5073953;28;20573;-59